sensor_id;sensor_type;location;lat;lon;timestamp;temperature;humidity
72126;SHT31;59999;51.676;22.650;2024-03-29T00:00:46;7.94;77.58
72126;SHT31;59999;51.676;22.650;2024-03-29T00:03:32;7.97;77.46
72126;SHT31;59999;51.676;22.650;2024-03-29T00:05:58;7.94;77.38
72126;SHT31;59999;51.676;22.650;2024-03-29T00:08:23;7.89;77.63
72126;SHT31;59999;51.676;22.650;2024-03-29T00:10:50;7.79;77.92
72126;SHT31;59999;51.676;22.650;2024-03-29T00:13:15;7.75;78.07
72126;SHT31;59999;51.676;22.650;2024-03-29T00:15:41;7.67;78.26
72126;SHT31;59999;51.676;22.650;2024-03-29T00:18:07;7.63;78.33
72126;SHT31;59999;51.676;22.650;2024-03-29T00:20:33;7.62;78.41
72126;SHT31;59999;51.676;22.650;2024-03-29T00:22:59;7.62;78.52
72126;SHT31;59999;51.676;22.650;2024-03-29T00:25:24;7.63;78.51
72126;SHT31;59999;51.676;22.650;2024-03-29T00:27:50;7.65;78.53
72126;SHT31;59999;51.676;22.650;2024-03-29T00:30:16;7.66;78.48
72126;SHT31;59999;51.676;22.650;2024-03-29T00:32:42;7.70;78.45
72126;SHT31;59999;51.676;22.650;2024-03-29T00:35:08;7.72;78.37
72126;SHT31;59999;51.676;22.650;2024-03-29T00:37:33;7.75;78.40
72126;SHT31;59999;51.676;22.650;2024-03-29T00:40:00;7.86;78.22
72126;SHT31;59999;51.676;22.650;2024-03-29T00:42:26;7.90;78.27
72126;SHT31;59999;51.676;22.650;2024-03-29T00:44:52;7.94;78.11
72126;SHT31;59999;51.676;22.650;2024-03-29T00:47:17;7.98;77.99
72126;SHT31;59999;51.676;22.650;2024-03-29T00:49:43;8.04;78.05
72126;SHT31;59999;51.676;22.650;2024-03-29T00:52:09;8.07;78.01
72126;SHT31;59999;51.676;22.650;2024-03-29T00:54:35;8.04;78.12
72126;SHT31;59999;51.676;22.650;2024-03-29T00:57:01;8.05;78.25
72126;SHT31;59999;51.676;22.650;2024-03-29T00:59:27;8.10;78.35
72126;SHT31;59999;51.676;22.650;2024-03-29T01:01:53;8.23;78.49
72126;SHT31;59999;51.676;22.650;2024-03-29T01:04:19;8.41;78.95
72126;SHT31;59999;51.676;22.650;2024-03-29T01:06:45;8.44;79.24
72126;SHT31;59999;51.676;22.650;2024-03-29T01:09:11;8.46;79.58
72126;SHT31;59999;51.676;22.650;2024-03-29T01:11:37;8.48;79.77
72126;SHT31;59999;51.676;22.650;2024-03-29T01:14:04;8.51;79.80
72126;SHT31;59999;51.676;22.650;2024-03-29T01:16:31;8.51;79.93
72126;SHT31;59999;51.676;22.650;2024-03-29T01:19:00;8.49;80.42
72126;SHT31;59999;51.676;22.650;2024-03-29T01:21:28;8.48;80.64
72126;SHT31;59999;51.676;22.650;2024-03-29T01:23:54;8.51;81.04
72126;SHT31;59999;51.676;22.650;2024-03-29T01:26:20;8.46;81.86
72126;SHT31;59999;51.676;22.650;2024-03-29T01:28:46;8.48;82.01
72126;SHT31;59999;51.676;22.650;2024-03-29T01:31:12;8.46;82.32
72126;SHT31;59999;51.676;22.650;2024-03-29T01:33:38;8.44;82.50
72126;SHT31;59999;51.676;22.650;2024-03-29T01:36:07;8.41;82.71
72126;SHT31;59999;51.676;22.650;2024-03-29T01:38:33;8.42;82.86
72126;SHT31;59999;51.676;22.650;2024-03-29T01:40:59;8.40;82.92
72126;SHT31;59999;51.676;22.650;2024-03-29T01:43:25;8.37;82.96
72126;SHT31;59999;51.676;22.650;2024-03-29T01:45:54;8.40;82.81
72126;SHT31;59999;51.676;22.650;2024-03-29T01:48:24;8.40;82.72
72126;SHT31;59999;51.676;22.650;2024-03-29T01:50:51;8.42;82.24
72126;SHT31;59999;51.676;22.650;2024-03-29T01:53:20;8.41;81.80
72126;SHT31;59999;51.676;22.650;2024-03-29T01:55:46;8.42;81.55
72126;SHT31;59999;51.676;22.650;2024-03-29T01:58:13;8.41;81.36
72126;SHT31;59999;51.676;22.650;2024-03-29T02:00:44;8.41;81.22
72126;SHT31;59999;51.676;22.650;2024-03-29T02:03:11;8.40;81.47
72126;SHT31;59999;51.676;22.650;2024-03-29T02:05:40;8.38;81.50
72126;SHT31;59999;51.676;22.650;2024-03-29T02:08:07;8.38;81.70
72126;SHT31;59999;51.676;22.650;2024-03-29T02:10:36;8.31;82.08
72126;SHT31;59999;51.676;22.650;2024-03-29T02:13:03;8.25;82.51
72126;SHT31;59999;51.676;22.650;2024-03-29T02:15:30;8.24;82.76
72126;SHT31;59999;51.676;22.650;2024-03-29T02:17:56;8.18;83.00
72126;SHT31;59999;51.676;22.650;2024-03-29T02:20:22;8.14;83.23
72126;SHT31;59999;51.676;22.650;2024-03-29T02:23:02;8.10;83.46
72126;SHT31;59999;51.676;22.650;2024-03-29T02:25:30;8.07;83.57
72126;SHT31;59999;51.676;22.650;2024-03-29T02:27:57;8.05;83.67
72126;SHT31;59999;51.676;22.650;2024-03-29T02:30:24;8.03;83.70
72126;SHT31;59999;51.676;22.650;2024-03-29T02:32:50;8.07;83.57
72126;SHT31;59999;51.676;22.650;2024-03-29T02:35:16;8.10;83.50
72126;SHT31;59999;51.676;22.650;2024-03-29T02:37:42;8.08;83.54
72126;SHT31;59999;51.676;22.650;2024-03-29T02:40:07;8.10;83.45
72126;SHT31;59999;51.676;22.650;2024-03-29T02:42:34;8.11;83.48
72126;SHT31;59999;51.676;22.650;2024-03-29T02:45:02;8.11;83.59
72126;SHT31;59999;51.676;22.650;2024-03-29T02:47:28;8.13;83.68
72126;SHT31;59999;51.676;22.650;2024-03-29T02:49:54;8.13;83.60
72126;SHT31;59999;51.676;22.650;2024-03-29T02:52:20;8.13;83.65
72126;SHT31;59999;51.676;22.650;2024-03-29T02:54:45;8.08;83.90
72126;SHT31;59999;51.676;22.650;2024-03-29T02:57:11;8.05;83.81
72126;SHT31;59999;51.676;22.650;2024-03-29T02:59:39;8.03;83.59
72126;SHT31;59999;51.676;22.650;2024-03-29T03:02:05;8.04;83.48
72126;SHT31;59999;51.676;22.650;2024-03-29T03:04:31;8.04;83.54
72126;SHT31;59999;51.676;22.650;2024-03-29T03:06:57;8.05;83.44
72126;SHT31;59999;51.676;22.650;2024-03-29T03:09:43;8.03;83.53
72126;SHT31;59999;51.676;22.650;2024-03-29T03:12:29;8.05;83.45
72126;SHT31;59999;51.676;22.650;2024-03-29T03:14:55;8.03;83.93
72126;SHT31;59999;51.676;22.650;2024-03-29T03:17:21;8.00;84.25
72126;SHT31;59999;51.676;22.650;2024-03-29T03:19:47;7.94;84.53
72126;SHT31;59999;51.676;22.650;2024-03-29T03:22:12;7.83;85.00
72126;SHT31;59999;51.676;22.650;2024-03-29T03:24:38;7.77;85.01
72126;SHT31;59999;51.676;22.650;2024-03-29T03:27:04;7.69;84.92
72126;SHT31;59999;51.676;22.650;2024-03-29T03:29:30;7.61;85.41
72126;SHT31;59999;51.676;22.650;2024-03-29T03:31:56;7.55;85.91
72126;SHT31;59999;51.676;22.650;2024-03-29T03:34:21;7.45;87.08
72126;SHT31;59999;51.676;22.650;2024-03-29T03:36:47;7.34;88.41
72126;SHT31;59999;51.676;22.650;2024-03-29T03:39:13;7.25;89.30
72126;SHT31;59999;51.676;22.650;2024-03-29T03:41:39;7.17;89.66
72126;SHT31;59999;51.676;22.650;2024-03-29T03:44:04;7.09;90.12
72126;SHT31;59999;51.676;22.650;2024-03-29T03:46:30;7.08;90.16
72126;SHT31;59999;51.676;22.650;2024-03-29T03:48:56;7.00;90.44
72126;SHT31;59999;51.676;22.650;2024-03-29T03:51:22;6.98;90.37
72126;SHT31;59999;51.676;22.650;2024-03-29T03:53:48;6.97;90.66
72126;SHT31;59999;51.676;22.650;2024-03-29T03:56:14;6.93;90.92
72126;SHT31;59999;51.676;22.650;2024-03-29T03:58:39;6.91;90.50
72126;SHT31;59999;51.676;22.650;2024-03-29T04:01:06;6.90;90.56
72126;SHT31;59999;51.676;22.650;2024-03-29T04:03:32;6.87;90.76
72126;SHT31;59999;51.676;22.650;2024-03-29T04:05:58;6.87;90.81
72126;SHT31;59999;51.676;22.650;2024-03-29T04:08:23;6.87;90.87
72126;SHT31;59999;51.676;22.650;2024-03-29T04:10:49;6.84;91.02
72126;SHT31;59999;51.676;22.650;2024-03-29T04:13:15;6.84;90.97
72126;SHT31;59999;51.676;22.650;2024-03-29T04:15:41;6.79;91.03
72126;SHT31;59999;51.676;22.650;2024-03-29T04:18:07;6.80;90.98
72126;SHT31;59999;51.676;22.650;2024-03-29T04:20:33;6.80;90.60
72126;SHT31;59999;51.676;22.650;2024-03-29T04:22:58;6.76;90.86
72126;SHT31;59999;51.676;22.650;2024-03-29T04:25:24;6.79;90.68
72126;SHT31;59999;51.676;22.650;2024-03-29T04:27:50;6.79;90.77
72126;SHT31;59999;51.676;22.650;2024-03-29T04:30:16;6.79;90.76
72126;SHT31;59999;51.676;22.650;2024-03-29T04:32:41;6.76;90.54
72126;SHT31;59999;51.676;22.650;2024-03-29T04:35:08;6.76;90.54
72126;SHT31;59999;51.676;22.650;2024-03-29T04:37:33;6.75;90.27
72126;SHT31;59999;51.676;22.650;2024-03-29T04:39:59;6.77;90.17
72126;SHT31;59999;51.676;22.650;2024-03-29T04:42:25;6.77;90.12
72126;SHT31;59999;51.676;22.650;2024-03-29T04:44:51;6.80;90.10
72126;SHT31;59999;51.676;22.650;2024-03-29T04:47:17;6.80;90.17
72126;SHT31;59999;51.676;22.650;2024-03-29T04:49:43;6.77;90.13
72126;SHT31;59999;51.676;22.650;2024-03-29T04:52:09;6.80;89.89
72126;SHT31;59999;51.676;22.650;2024-03-29T04:54:35;6.80;89.76
72126;SHT31;59999;51.676;22.650;2024-03-29T04:57:01;6.83;89.63
72126;SHT31;59999;51.676;22.650;2024-03-29T04:59:29;6.81;89.45
72126;SHT31;59999;51.676;22.650;2024-03-29T05:01:55;6.81;89.44
72126;SHT31;59999;51.676;22.650;2024-03-29T05:04:23;6.81;89.08
72126;SHT31;59999;51.676;22.650;2024-03-29T05:06:55;6.84;88.95
72126;SHT31;59999;51.676;22.650;2024-03-29T05:09:22;6.87;88.98
72126;SHT31;59999;51.676;22.650;2024-03-29T05:11:47;6.91;89.01
72126;SHT31;59999;51.676;22.650;2024-03-29T05:14:18;6.87;89.01
72126;SHT31;59999;51.676;22.650;2024-03-29T05:16:47;6.88;88.89
72126;SHT31;59999;51.676;22.650;2024-03-29T05:19:14;6.94;88.90
72126;SHT31;59999;51.676;22.650;2024-03-29T05:21:41;6.97;88.81
72126;SHT31;59999;51.676;22.650;2024-03-29T05:24:07;6.98;88.72
72126;SHT31;59999;51.676;22.650;2024-03-29T05:26:34;7.01;88.43
72126;SHT31;59999;51.676;22.650;2024-03-29T05:29:00;7.01;88.42
72126;SHT31;59999;51.676;22.650;2024-03-29T05:31:26;7.00;88.30
72126;SHT31;59999;51.676;22.650;2024-03-29T05:33:55;7.04;88.20
72126;SHT31;59999;51.676;22.650;2024-03-29T05:36:21;7.05;88.09
72126;SHT31;59999;51.676;22.650;2024-03-29T05:38:47;7.05;87.99
72126;SHT31;59999;51.676;22.650;2024-03-29T05:41:13;7.01;87.69
72126;SHT31;59999;51.676;22.650;2024-03-29T05:43:39;7.03;87.79
72126;SHT31;59999;51.676;22.650;2024-03-29T05:46:05;7.01;87.81
72126;SHT31;59999;51.676;22.650;2024-03-29T05:48:32;7.03;87.91
72126;SHT31;59999;51.676;22.650;2024-03-29T05:50:57;7.03;87.86
72126;SHT31;59999;51.676;22.650;2024-03-29T05:53:23;7.00;87.84
72126;SHT31;59999;51.676;22.650;2024-03-29T05:55:49;6.97;87.79
72126;SHT31;59999;51.676;22.650;2024-03-29T05:58:15;6.97;87.90
72126;SHT31;59999;51.676;22.650;2024-03-29T06:00:44;6.94;88.00
72126;SHT31;59999;51.676;22.650;2024-03-29T06:03:10;6.98;88.20
72126;SHT31;59999;51.676;22.650;2024-03-29T06:05:36;7.05;87.89
72126;SHT31;59999;51.676;22.650;2024-03-29T06:08:02;7.18;87.87
72126;SHT31;59999;51.676;22.650;2024-03-29T06:10:28;7.34;87.62
72126;SHT31;59999;51.676;22.650;2024-03-29T06:12:54;7.54;87.05
72126;SHT31;59999;51.676;22.650;2024-03-29T06:15:19;7.66;86.73
72126;SHT31;59999;51.676;22.650;2024-03-29T06:18:04;7.82;86.13
72126;SHT31;59999;51.676;22.650;2024-03-29T06:20:30;7.94;85.49
72126;SHT31;59999;51.676;22.650;2024-03-29T06:22:56;8.07;85.32
72126;SHT31;59999;51.676;22.650;2024-03-29T06:25:22;8.17;83.82
72126;SHT31;59999;51.676;22.650;2024-03-29T06:27:48;8.27;83.48
72126;SHT31;59999;51.676;22.650;2024-03-29T06:30:14;8.33;83.49
72126;SHT31;59999;51.676;22.650;2024-03-29T06:32:45;8.45;83.18
72126;SHT31;59999;51.676;22.650;2024-03-29T06:35:13;8.52;82.50
72126;SHT31;59999;51.676;22.650;2024-03-29T06:37:39;8.63;81.69
72126;SHT31;59999;51.676;22.650;2024-03-29T06:40:06;8.73;81.19
72126;SHT31;59999;51.676;22.650;2024-03-29T06:42:33;8.86;80.78
72126;SHT31;59999;51.676;22.650;2024-03-29T06:44:59;8.96;80.41
72126;SHT31;59999;51.676;22.650;2024-03-29T06:47:27;9.04;79.00
72126;SHT31;59999;51.676;22.650;2024-03-29T06:49:53;9.09;78.36
72126;SHT31;59999;51.676;22.650;2024-03-29T06:52:19;9.19;79.29
72126;SHT31;59999;51.676;22.650;2024-03-29T06:54:45;9.28;78.34
72126;SHT31;59999;51.676;22.650;2024-03-29T06:57:11;9.35;78.41
72126;SHT31;59999;51.676;22.650;2024-03-29T06:59:41;9.42;77.11
72126;SHT31;59999;51.676;22.650;2024-03-29T07:02:07;9.47;77.25
72126;SHT31;59999;51.676;22.650;2024-03-29T07:04:34;9.57;77.76
72126;SHT31;59999;51.676;22.650;2024-03-29T07:06:59;9.63;77.14
72126;SHT31;59999;51.676;22.650;2024-03-29T07:09:25;9.71;76.48
72126;SHT31;59999;51.676;22.650;2024-03-29T07:11:51;9.82;77.06
72126;SHT31;59999;51.676;22.650;2024-03-29T07:14:18;9.90;76.80
72126;SHT31;59999;51.676;22.650;2024-03-29T07:16:45;9.99;75.47
72126;SHT31;59999;51.676;22.650;2024-03-29T07:19:12;10.00;74.58
72126;SHT31;59999;51.676;22.650;2024-03-29T07:21:45;10.09;75.48
72126;SHT31;59999;51.676;22.650;2024-03-29T07:24:12;10.20;73.99
72126;SHT31;59999;51.676;22.650;2024-03-29T07:26:38;10.27;72.28
72126;SHT31;59999;51.676;22.650;2024-03-29T07:29:05;10.32;72.70
72126;SHT31;59999;51.676;22.650;2024-03-29T07:31:32;10.34;71.38
72126;SHT31;59999;51.676;22.650;2024-03-29T07:33:57;10.41;71.26
72126;SHT31;59999;51.676;22.650;2024-03-29T07:36:23;10.48;71.36
72126;SHT31;59999;51.676;22.650;2024-03-29T07:38:52;10.50;70.36
72126;SHT31;59999;51.676;22.650;2024-03-29T07:41:18;10.57;69.42
72126;SHT31;59999;51.676;22.650;2024-03-29T07:43:57;10.69;70.41
72126;SHT31;59999;51.676;22.650;2024-03-29T07:46:32;10.82;68.99
72126;SHT31;59999;51.676;22.650;2024-03-29T07:48:59;10.92;67.96
72126;SHT31;59999;51.676;22.650;2024-03-29T07:51:25;11.04;68.59
72126;SHT31;59999;51.676;22.650;2024-03-29T07:53:50;11.15;67.26
72126;SHT31;59999;51.676;22.650;2024-03-29T07:56:16;11.23;65.24
72126;SHT31;59999;51.676;22.650;2024-03-29T07:58:43;11.27;66.40
72126;SHT31;59999;51.676;22.650;2024-03-29T08:01:09;11.27;65.52
72126;SHT31;59999;51.676;22.650;2024-03-29T08:03:34;11.43;66.70
72126;SHT31;59999;51.676;22.650;2024-03-29T08:06:02;11.50;65.76
72126;SHT31;59999;51.676;22.650;2024-03-29T08:08:31;11.56;64.96
72126;SHT31;59999;51.676;22.650;2024-03-29T08:10:58;11.66;65.20
72126;SHT31;59999;51.676;22.650;2024-03-29T08:13:25;11.73;63.85
72126;SHT31;59999;51.676;22.650;2024-03-29T08:15:59;11.74;63.99
72126;SHT31;59999;51.676;22.650;2024-03-29T08:18:26;11.71;64.79
72126;SHT31;59999;51.676;22.650;2024-03-29T08:20:52;11.75;65.53
72126;SHT31;59999;51.676;22.650;2024-03-29T08:23:21;11.75;64.89
72126;SHT31;59999;51.676;22.650;2024-03-29T08:25:47;11.85;65.51
72126;SHT31;59999;51.676;22.650;2024-03-29T08:28:14;11.75;64.36
72126;SHT31;59999;51.676;22.650;2024-03-29T08:30:40;11.78;64.78
72126;SHT31;59999;51.676;22.650;2024-03-29T08:33:06;11.83;63.96
72126;SHT31;59999;51.676;22.650;2024-03-29T08:35:34;11.91;67.97
72126;SHT31;59999;51.676;22.650;2024-03-29T08:38:01;12.02;68.80
72126;SHT31;59999;51.676;22.650;2024-03-29T08:40:28;12.12;67.59
72126;SHT31;59999;51.676;22.650;2024-03-29T08:42:57;12.26;66.26
72126;SHT31;59999;51.676;22.650;2024-03-29T08:45:23;12.36;66.34
72126;SHT31;59999;51.676;22.650;2024-03-29T08:47:49;12.46;67.44
72126;SHT31;59999;51.676;22.650;2024-03-29T08:50:15;12.55;67.84
72126;SHT31;59999;51.676;22.650;2024-03-29T08:52:41;12.48;67.31
72126;SHT31;59999;51.676;22.650;2024-03-29T08:55:07;12.49;63.81
72126;SHT31;59999;51.676;22.650;2024-03-29T08:57:33;12.56;65.71
72126;SHT31;59999;51.676;22.650;2024-03-29T09:00:00;12.60;65.57
72126;SHT31;59999;51.676;22.650;2024-03-29T09:02:25;12.66;63.29
72126;SHT31;59999;51.676;22.650;2024-03-29T09:04:51;12.64;61.54
72126;SHT31;59999;51.676;22.650;2024-03-29T09:07:17;12.69;64.86
72126;SHT31;59999;51.676;22.650;2024-03-29T09:09:43;12.81;63.12
72126;SHT31;59999;51.676;22.650;2024-03-29T09:12:09;12.87;61.86
72126;SHT31;59999;51.676;22.650;2024-03-29T09:14:35;12.94;61.36
72126;SHT31;59999;51.676;22.650;2024-03-29T09:17:01;12.99;59.61
72126;SHT31;59999;51.676;22.650;2024-03-29T09:19:28;13.06;59.15
72126;SHT31;59999;51.676;22.650;2024-03-29T09:21:56;13.14;59.90
72126;SHT31;59999;51.676;22.650;2024-03-29T09:24:22;13.32;60.01
72126;SHT31;59999;51.676;22.650;2024-03-29T09:26:51;13.44;55.45
72126;SHT31;59999;51.676;22.650;2024-03-29T09:29:17;13.51;57.28
72126;SHT31;59999;51.676;22.650;2024-03-29T09:31:46;13.48;54.56
72126;SHT31;59999;51.676;22.650;2024-03-29T09:34:12;13.52;56.85
72126;SHT31;59999;51.676;22.650;2024-03-29T09:36:38;13.59;55.94
72126;SHT31;59999;51.676;22.650;2024-03-29T09:39:04;13.63;57.48
72126;SHT31;59999;51.676;22.650;2024-03-29T09:41:31;13.63;57.49
72126;SHT31;59999;51.676;22.650;2024-03-29T09:44:02;13.59;57.43
72126;SHT31;59999;51.676;22.650;2024-03-29T09:46:28;13.68;56.19
72126;SHT31;59999;51.676;22.650;2024-03-29T09:48:55;13.75;56.90
72126;SHT31;59999;51.676;22.650;2024-03-29T09:51:21;13.89;56.83
72126;SHT31;59999;51.676;22.650;2024-03-29T09:53:48;13.97;56.78
72126;SHT31;59999;51.676;22.650;2024-03-29T09:56:14;14.14;58.45
72126;SHT31;59999;51.676;22.650;2024-03-29T09:58:40;14.30;58.48
72126;SHT31;59999;51.676;22.650;2024-03-29T10:01:07;14.34;55.08
72126;SHT31;59999;51.676;22.650;2024-03-29T10:03:39;14.24;54.31
72126;SHT31;59999;51.676;22.650;2024-03-29T10:06:05;14.23;53.79
72126;SHT31;59999;51.676;22.650;2024-03-29T10:08:35;14.23;55.36
72126;SHT31;59999;51.676;22.650;2024-03-29T10:11:02;14.34;56.67
72126;SHT31;59999;51.676;22.650;2024-03-29T10:13:28;14.47;54.31
72126;SHT31;59999;51.676;22.650;2024-03-29T10:15:55;14.51;54.10
72126;SHT31;59999;51.676;22.650;2024-03-29T10:18:26;14.48;53.44
72126;SHT31;59999;51.676;22.650;2024-03-29T10:21:03;14.67;56.75
72126;SHT31;59999;51.676;22.650;2024-03-29T10:23:51;14.69;52.48
72126;SHT31;59999;51.676;22.650;2024-03-29T10:26:17;14.68;53.85
72126;SHT31;59999;51.676;22.650;2024-03-29T10:28:43;14.69;53.71
72126;SHT31;59999;51.676;22.650;2024-03-29T10:31:09;14.75;53.60
72126;SHT31;59999;51.676;22.650;2024-03-29T10:33:35;14.79;51.82
72126;SHT31;59999;51.676;22.650;2024-03-29T10:36:03;14.76;50.78
72126;SHT31;59999;51.676;22.650;2024-03-29T10:38:32;14.81;50.63
72126;SHT31;59999;51.676;22.650;2024-03-29T10:40:57;14.79;51.45
72126;SHT31;59999;51.676;22.650;2024-03-29T10:43:24;14.89;52.06
72126;SHT31;59999;51.676;22.650;2024-03-29T10:45:50;14.89;51.23
72126;SHT31;59999;51.676;22.650;2024-03-29T10:48:20;14.79;49.04
72126;SHT31;59999;51.676;22.650;2024-03-29T10:50:48;14.89;51.30
72126;SHT31;59999;51.676;22.650;2024-03-29T10:53:17;15.07;52.76
72126;SHT31;59999;51.676;22.650;2024-03-29T10:55:43;15.27;52.03
72126;SHT31;59999;51.676;22.650;2024-03-29T10:58:12;15.39;50.73
72126;SHT31;59999;51.676;22.650;2024-03-29T11:00:46;15.18;49.92
72126;SHT31;59999;51.676;22.650;2024-03-29T11:03:18;14.96;51.92
72126;SHT31;59999;51.676;22.650;2024-03-29T11:05:49;14.93;52.00
72126;SHT31;59999;51.676;22.650;2024-03-29T11:08:26;15.06;51.58
72126;SHT31;59999;51.676;22.650;2024-03-29T11:10:57;15.19;50.13
72126;SHT31;59999;51.676;22.650;2024-03-29T11:16:00;15.24;49.85
72126;SHT31;59999;51.676;22.650;2024-03-29T11:18:27;15.05;49.16
72126;SHT31;59999;51.676;22.650;2024-03-29T11:20:54;14.92;49.70
72126;SHT31;59999;51.676;22.650;2024-03-29T11:23:22;14.79;51.51
72126;SHT31;59999;51.676;22.650;2024-03-29T11:25:53;14.84;52.08
72126;SHT31;59999;51.676;22.650;2024-03-29T11:28:34;15.06;51.25
72126;SHT31;59999;51.676;22.650;2024-03-29T11:31:03;15.37;51.73
72126;SHT31;59999;51.676;22.650;2024-03-29T11:36:13;15.27;53.95
72126;SHT31;59999;51.676;22.650;2024-03-29T11:38:40;15.41;51.04
72126;SHT31;59999;51.676;22.650;2024-03-29T11:41:16;15.65;53.55
72126;SHT31;59999;51.676;22.650;2024-03-29T11:43:42;15.82;50.52
72126;SHT31;59999;51.676;22.650;2024-03-29T11:46:13;15.71;49.56
72126;SHT31;59999;51.676;22.650;2024-03-29T11:48:40;15.81;50.68
72126;SHT31;59999;51.676;22.650;2024-03-29T11:51:08;16.01;50.82
72126;SHT31;59999;51.676;22.650;2024-03-29T11:53:35;16.05;50.44
72126;SHT31;59999;51.676;22.650;2024-03-29T11:56:02;16.11;52.83
72126;SHT31;59999;51.676;22.650;2024-03-29T11:58:30;16.23;50.14
72126;SHT31;59999;51.676;22.650;2024-03-29T12:00:57;16.32;51.17
72126;SHT31;59999;51.676;22.650;2024-03-29T12:03:26;16.18;50.36
72126;SHT31;59999;51.676;22.650;2024-03-29T12:05:54;16.11;50.69
72126;SHT31;59999;51.676;22.650;2024-03-29T12:08:21;16.22;50.72
72126;SHT31;59999;51.676;22.650;2024-03-29T12:10:47;16.28;49.47
72126;SHT31;59999;51.676;22.650;2024-03-29T12:13:15;16.28;50.44
72126;SHT31;59999;51.676;22.650;2024-03-29T12:15:42;16.36;50.10
72126;SHT31;59999;51.676;22.650;2024-03-29T12:18:08;16.26;47.83
72126;SHT31;59999;51.676;22.650;2024-03-29T12:20:37;16.40;49.82
72126;SHT31;59999;51.676;22.650;2024-03-29T12:23:05;16.39;48.61
72126;SHT31;59999;51.676;22.650;2024-03-29T12:25:36;16.46;51.25
72126;SHT31;59999;51.676;22.650;2024-03-29T12:28:03;16.47;48.74
72126;SHT31;59999;51.676;22.650;2024-03-29T12:30:29;16.39;48.96
72126;SHT31;59999;51.676;22.650;2024-03-29T12:33:07;16.36;50.26
72126;SHT31;59999;51.676;22.650;2024-03-29T12:35:34;16.36;50.79
72126;SHT31;59999;51.676;22.650;2024-03-29T12:38:01;16.32;50.88
72126;SHT31;59999;51.676;22.650;2024-03-29T12:40:30;16.38;50.73
72126;SHT31;59999;51.676;22.650;2024-03-29T12:43:04;16.28;50.07
72126;SHT31;59999;51.676;22.650;2024-03-29T12:45:31;16.28;51.36
72126;SHT31;59999;51.676;22.650;2024-03-29T12:47:57;16.32;51.35
72126;SHT31;59999;51.676;22.650;2024-03-29T12:52:48;16.40;51.20
72126;SHT31;59999;51.676;22.650;2024-03-29T12:55:14;16.50;51.06
72126;SHT31;59999;51.676;22.650;2024-03-29T12:57:43;16.55;50.84
72126;SHT31;59999;51.676;22.650;2024-03-29T13:00:10;16.50;49.46
72126;SHT31;59999;51.676;22.650;2024-03-29T13:02:37;16.52;49.78
72126;SHT31;59999;51.676;22.650;2024-03-29T13:05:04;16.52;48.53
72126;SHT31;59999;51.676;22.650;2024-03-29T13:07:33;16.60;50.87
72126;SHT31;59999;51.676;22.650;2024-03-29T13:09:59;16.70;50.62
72126;SHT31;59999;51.676;22.650;2024-03-29T13:12:29;16.73;46.90
72126;SHT31;59999;51.676;22.650;2024-03-29T13:14:55;16.77;47.05
72126;SHT31;59999;51.676;22.650;2024-03-29T13:17:21;16.87;48.39
72126;SHT31;59999;51.676;22.650;2024-03-29T13:19:47;16.76;46.81
72126;SHT31;59999;51.676;22.650;2024-03-29T13:22:13;16.85;47.52
72126;SHT31;59999;51.676;22.650;2024-03-29T13:24:39;16.94;50.31
72126;SHT31;59999;51.676;22.650;2024-03-29T13:27:05;16.88;50.10
72126;SHT31;59999;51.676;22.650;2024-03-29T13:29:30;16.87;48.32
72126;SHT31;59999;51.676;22.650;2024-03-29T13:31:56;16.83;46.79
72126;SHT31;59999;51.676;22.650;2024-03-29T13:34:22;16.83;45.30
72126;SHT31;59999;51.676;22.650;2024-03-29T13:36:48;16.80;45.83
72126;SHT31;59999;51.676;22.650;2024-03-29T13:39:14;16.83;46.38
72126;SHT31;59999;51.676;22.650;2024-03-29T13:41:41;16.85;47.61
72126;SHT31;59999;51.676;22.650;2024-03-29T13:44:06;16.84;45.77
72126;SHT31;59999;51.676;22.650;2024-03-29T13:46:33;16.81;43.24
72126;SHT31;59999;51.676;22.650;2024-03-29T13:48:59;16.85;45.34
72126;SHT31;59999;51.676;22.650;2024-03-29T13:51:25;16.85;45.14
72126;SHT31;59999;51.676;22.650;2024-03-29T13:53:51;16.95;45.42
72126;SHT31;59999;51.676;22.650;2024-03-29T13:56:17;16.97;45.67
72126;SHT31;59999;51.676;22.650;2024-03-29T13:58:43;17.00;45.32
72126;SHT31;59999;51.676;22.650;2024-03-29T14:01:08;16.91;44.24
72126;SHT31;59999;51.676;22.650;2024-03-29T14:03:34;16.89;44.23
72126;SHT31;59999;51.676;22.650;2024-03-29T14:06:00;17.01;45.09
72126;SHT31;59999;51.676;22.650;2024-03-29T14:08:26;17.00;45.15
72126;SHT31;59999;51.676;22.650;2024-03-29T14:10:52;17.00;43.99
72126;SHT31;59999;51.676;22.650;2024-03-29T14:13:19;16.91;43.23
72126;SHT31;59999;51.676;22.650;2024-03-29T14:15:45;16.89;45.71
72126;SHT31;59999;51.676;22.650;2024-03-29T14:18:11;16.88;43.46
72126;SHT31;59999;51.676;22.650;2024-03-29T14:20:38;16.83;41.87
72126;SHT31;59999;51.676;22.650;2024-03-29T14:23:04;16.73;43.62
72126;SHT31;59999;51.676;22.650;2024-03-29T14:25:32;16.68;44.25
72126;SHT31;59999;51.676;22.650;2024-03-29T14:27:59;16.64;42.47
72126;SHT31;59999;51.676;22.650;2024-03-29T14:30:27;16.59;43.15
72126;SHT31;59999;51.676;22.650;2024-03-29T14:32:55;16.50;43.34
72126;SHT31;59999;51.676;22.650;2024-03-29T14:35:22;16.39;41.57
72126;SHT31;59999;51.676;22.650;2024-03-29T14:37:48;16.33;41.57
72126;SHT31;59999;51.676;22.650;2024-03-29T14:40:14;16.30;42.79
72126;SHT31;59999;51.676;22.650;2024-03-29T14:42:44;16.26;42.45
72126;SHT31;59999;51.676;22.650;2024-03-29T14:45:10;16.23;43.75
72126;SHT31;59999;51.676;22.650;2024-03-29T14:47:37;16.25;43.70
72126;SHT31;59999;51.676;22.650;2024-03-29T14:50:04;16.26;43.23
72126;SHT31;59999;51.676;22.650;2024-03-29T14:52:37;16.32;42.79
72126;SHT31;59999;51.676;22.650;2024-03-29T14:55:04;16.30;42.33
72126;SHT31;59999;51.676;22.650;2024-03-29T14:57:30;16.28;44.24
72126;SHT31;59999;51.676;22.650;2024-03-29T14:59:56;16.29;43.14
72126;SHT31;59999;51.676;22.650;2024-03-29T15:02:22;16.28;43.53
72126;SHT31;59999;51.676;22.650;2024-03-29T15:04:48;16.38;43.55
72126;SHT31;59999;51.676;22.650;2024-03-29T15:07:13;16.52;42.21
72126;SHT31;59999;51.676;22.650;2024-03-29T15:09:39;16.67;42.57
72126;SHT31;59999;51.676;22.650;2024-03-29T15:12:05;16.84;41.97
72126;SHT31;59999;51.676;22.650;2024-03-29T15:14:31;16.97;42.27
72126;SHT31;59999;51.676;22.650;2024-03-29T15:16:57;17.11;42.09
72126;SHT31;59999;51.676;22.650;2024-03-29T15:19:23;17.18;43.50
72126;SHT31;59999;51.676;22.650;2024-03-29T15:21:49;17.34;43.58
72126;SHT31;59999;51.676;22.650;2024-03-29T15:24:15;17.39;41.64
72126;SHT31;59999;51.676;22.650;2024-03-29T15:26:41;17.42;42.24
72126;SHT31;59999;51.676;22.650;2024-03-29T15:29:07;17.47;42.11